createdAt,value
2018-12-11T00:02:34.103Z,93.40
2018-12-11T00:08:11.510Z,93.70
2018-12-11T00:10:48.495Z,93.80
2018-12-11T00:13:17.833Z,93.90
2018-12-11T00:15:47.165Z,94.00
2018-12-11T00:18:16.541Z,94.10
2018-12-11T00:21:05.423Z,94.20
2018-12-11T00:23:34.828Z,94.30
2018-12-11T00:26:04.767Z,94.40
2018-12-11T00:28:34.135Z,94.50
2018-12-11T00:31:04.191Z,94.70
2018-12-11T00:36:39.984Z,94.90
2018-12-11T00:39:12.468Z,95.00
2018-12-11T00:41:41.843Z,95.20
2018-12-11T00:44:11.163Z,95.40
2018-12-11T00:46:40.559Z,95.60
2018-12-11T00:52:05.711Z,95.90
2018-12-11T00:54:35.077Z,96.00
2018-12-11T00:57:05.570Z,96.20
2018-12-11T00:59:38.438Z,96.30
2018-12-11T01:02:08.232Z,96.30
2018-12-11T01:04:37.604Z,96.50
2018-12-11T01:07:11.540Z,96.50
2018-12-11T01:09:53.647Z,96.70
2018-12-11T01:12:23.551Z,96.90
2018-12-11T01:14:52.912Z,96.90
2018-12-11T01:17:22.297Z,97.10
2018-12-11T01:19:55.635Z,97.20
2018-12-11T01:22:24.992Z,97.20
2018-12-11T01:24:54.404Z,97.40
2018-12-11T01:30:42.251Z,97.50
2018-12-11T01:33:12.567Z,97.60
2018-12-11T01:36:06.363Z,97.70
2018-12-11T01:38:36.323Z,97.60
2018-12-11T01:41:05.665Z,97.70
2018-12-11T01:43:47.676Z,97.70
2018-12-11T01:46:23.001Z,97.70
2018-12-11T01:48:52.402Z,97.60
2018-12-11T01:54:16.783Z,97.80
2018-12-11T01:56:46.151Z,97.80
2018-12-11T01:59:21.003Z,97.80
2018-12-11T02:01:55.770Z,97.90
2018-12-11T02:07:31.394Z,98.20
2018-12-11T02:10:05.480Z,98.40
2018-12-11T02:12:35.674Z,98.50
2018-12-11T02:15:07.120Z,98.60
2018-12-11T02:17:44.453Z,98.70
2018-12-11T02:20:30.455Z,98.80
2018-12-11T02:23:09.950Z,98.80
2018-12-11T02:25:39.311Z,98.80
2018-12-11T02:28:08.731Z,98.90
2018-12-11T02:31:15.201Z,99.00
2018-12-11T02:33:44.657Z,99.10
2018-12-11T02:39:26.673Z,99.10
2018-12-11T02:42:01.903Z,99.20
2018-12-11T02:44:31.251Z,99.10
2018-12-11T02:47:00.587Z,99.10
2018-12-11T02:49:35.749Z,99.10
2018-12-11T02:52:06.905Z,99.30
2018-12-11T02:54:38.402Z,99.40
2018-12-11T02:57:08.087Z,99.50
2018-12-11T02:59:49.488Z,99.60
2018-12-11T03:02:19.140Z,99.50
2018-12-11T03:04:49.373Z,99.50
2018-12-11T03:07:18.734Z,99.50
2018-12-11T03:09:55.563Z,99.40
2018-12-11T03:15:25.647Z,99.40
2018-12-11T03:17:54.984Z,99.40
2018-12-11T03:20:24.372Z,99.40
2018-12-11T03:23:30.775Z,99.30
2018-12-11T03:26:00.115Z,99.30
2018-12-11T03:28:30.017Z,99.20
2018-12-11T03:31:02.633Z,99.30
2018-12-11T03:33:31.956Z,99.40
2018-12-11T03:36:01.291Z,99.40
2018-12-11T03:38:37.081Z,99.40
2018-12-11T03:41:28.975Z,99.40
2018-12-11T03:44:16.181Z,99.40
2018-12-11T03:46:49.831Z,99.40
2018-12-11T03:49:21.178Z,99.40
2018-12-11T03:51:56.613Z,99.40
2018-12-11T03:57:45.848Z,99.50
2018-12-11T04:00:15.703Z,99.50
2018-12-11T04:02:46.084Z,99.60
2018-12-11T04:05:15.451Z,99.80
2018-12-11T04:07:51.916Z,99.70
2018-12-11T04:10:35.452Z,99.60
2018-12-11T04:13:05.250Z,99.60
2018-12-11T04:15:34.606Z,99.70
2018-12-11T04:18:04.472Z,99.70
2018-12-11T04:20:40.484Z,99.70
2018-12-11T04:26:14.287Z,99.60
2018-12-11T04:28:43.617Z,99.60
2018-12-11T04:31:13.168Z,99.60
2018-12-11T04:33:42.513Z,99.60
2018-12-11T04:36:11.895Z,99.50
2018-12-11T04:38:41.219Z,99.40
2018-12-11T04:44:15.360Z,99.20
2018-12-11T04:46:44.784Z,99.10
2018-12-11T04:49:14.223Z,99.10
2018-12-11T04:51:43.591Z,99.00
2018-12-11T04:54:12.947Z,99.00
2018-12-11T04:59:46.520Z,98.80
2018-12-11T05:02:15.839Z,98.80
2018-12-11T05:04:55.995Z,98.70
2018-12-11T05:10:24.615Z,98.60
2018-12-11T05:12:54.040Z,98.60
2018-12-11T05:15:23.390Z,98.60
2018-12-11T05:17:52.738Z,98.60
2018-12-11T05:23:48.337Z,98.90
2018-12-11T05:26:17.672Z,99.10
2018-12-11T05:28:47.075Z,99.30
2018-12-11T05:31:17.518Z,99.30
2018-12-11T05:33:52.191Z,99.80
2018-12-11T05:36:25.653Z,99.90
2018-12-11T05:38:55.040Z,99.90
2018-12-11T05:41:37.493Z,99.90
2018-12-11T05:44:07.076Z,99.90
2018-12-11T05:46:36.521Z,99.90
2018-12-11T05:49:30.857Z,99.90
2018-12-11T05:52:01.938Z,99.90
2018-12-11T05:54:31.325Z,99.10
2018-12-11T05:57:00.652Z,98.30
2018-12-11T05:59:30.039Z,97.80
2018-12-11T06:02:05.297Z,97.40
2018-12-11T06:04:37.029Z,96.90
2018-12-11T06:07:06.419Z,96.50
2018-12-11T06:09:42.103Z,95.90
2018-12-11T06:12:11.486Z,95.50
2018-12-11T06:14:40.843Z,95.20
2018-12-11T06:17:10.777Z,94.90
2018-12-11T06:22:59.208Z,94.10
2018-12-11T06:25:32.232Z,93.50
2018-12-11T06:28:01.631Z,93.10
2018-12-11T06:30:43.269Z,92.70
2018-12-11T06:33:19.708Z,92.40
2018-12-11T06:35:54.567Z,92.10
2018-12-11T06:38:25.608Z,91.80
2018-12-11T06:41:08.148Z,91.30
2018-12-11T06:43:43.443Z,91.10
2018-12-11T06:49:38.984Z,90.60
2018-12-11T06:52:14.583Z,90.30
2018-12-11T06:54:56.457Z,90.30
2018-12-11T07:00:29.700Z,88.70
2018-12-11T07:02:59.026Z,88.20
2018-12-11T07:05:28.415Z,87.80
2018-12-11T07:08:03.242Z,87.40
2018-12-11T07:10:36.223Z,87.60
2018-12-11T07:13:05.609Z,87.10
2018-12-11T07:15:39.661Z,86.80
2018-12-11T07:18:11.080Z,86.10
2018-12-11T07:20:50.991Z,85.70
2018-12-11T07:23:20.435Z,85.00
2018-12-11T07:25:49.831Z,84.60
2018-12-11T07:28:31.536Z,84.50
2018-12-11T07:31:05.335Z,84.10
2018-12-11T07:33:34.671Z,83.90
2018-12-11T07:36:04.140Z,83.20
2018-12-11T07:38:34.746Z,82.80
2018-12-11T07:44:10.859Z,82.00
2018-12-11T07:46:40.238Z,81.40
2018-12-11T07:49:13.637Z,80.80
2018-12-11T07:51:42.989Z,80.60
2018-12-11T07:54:12.892Z,80.00
2018-12-11T07:56:42.886Z,79.70
2018-12-11T07:59:32.571Z,78.90
2018-12-11T08:02:04.964Z,78.60
2018-12-11T08:04:35.122Z,78.10
2018-12-11T08:07:04.818Z,77.90
2018-12-11T08:09:43.470Z,78.50
2018-12-11T08:12:12.801Z,77.60
2018-12-11T08:14:42.174Z,77.10
2018-12-11T08:17:12.079Z,77.10
2018-12-11T08:20:04.291Z,77.10
2018-12-11T08:22:34.591Z,76.80
2018-12-11T08:25:05.078Z,76.40
2018-12-11T08:27:34.502Z,76.20
2018-12-11T08:30:08.367Z,75.80
2018-12-11T08:32:37.895Z,76.00
2018-12-11T08:35:07.628Z,75.90
2018-12-11T08:37:37.737Z,75.80
2018-12-11T08:40:10.955Z,75.90
2018-12-11T08:42:40.330Z,75.80
2018-12-11T08:45:09.782Z,75.80
2018-12-11T08:47:39.925Z,75.20
2018-12-11T08:53:16.218Z,74.80
2018-12-11T08:55:45.604Z,74.50
2018-12-11T08:58:14.992Z,74.20
2018-12-11T09:00:47.956Z,74.00
2018-12-11T09:03:17.326Z,74.00
2018-12-11T09:05:46.664Z,73.90
2018-12-11T09:08:16.028Z,73.70
2018-12-11T09:11:09.542Z,74.20
2018-12-11T09:13:39.800Z,73.80
2018-12-11T09:16:09.203Z,73.70
2018-12-11T09:18:39.935Z,73.40
2018-12-11T09:21:13.161Z,72.90
2018-12-11T09:23:42.485Z,72.70
2018-12-11T09:26:11.987Z,72.50
2018-12-11T09:28:42.417Z,72.30
2018-12-11T09:34:07.088Z,72.10
2018-12-11T09:36:37.058Z,71.80
2018-12-11T09:39:08.061Z,71.50
2018-12-11T09:41:39.151Z,71.40
2018-12-11T09:44:08.546Z,71.10
2018-12-11T09:46:38.691Z,71.00
2018-12-11T09:49:11.879Z,70.60
2018-12-11T09:51:41.263Z,70.30
2018-12-11T09:54:10.640Z,70.30
2018-12-11T09:56:40.197Z,70.10
2018-12-11T09:59:09.626Z,70.00
2018-12-11T10:01:38.964Z,69.90
2018-12-11T10:04:11.728Z,69.80
2018-12-11T10:06:49.133Z,69.60
2018-12-11T10:09:26.239Z,69.60
2018-12-11T10:11:55.700Z,69.60
2018-12-11T10:14:25.025Z,69.50
2018-12-11T10:16:54.460Z,69.50
2018-12-11T10:19:30.165Z,69.40
2018-12-11T10:21:59.584Z,69.30
2018-12-11T10:24:38.546Z,69.20
2018-12-11T10:27:07.938Z,69.90
2018-12-11T10:32:37.198Z,69.00
2018-12-11T10:35:07.883Z,68.90
2018-12-11T10:37:37.246Z,69.50
2018-12-11T10:40:10.481Z,68.70
2018-12-11T10:42:40.190Z,68.70
2018-12-11T10:45:19.434Z,68.50
2018-12-11T10:47:54.977Z,68.50
2018-12-11T10:50:30.342Z,68.50
2018-12-11T10:52:59.784Z,68.70
2018-12-11T10:55:29.681Z,68.50
2018-12-11T10:57:59.081Z,68.40
2018-12-11T11:00:37.581Z,68.20
2018-12-11T11:03:07.886Z,68.20
2018-12-11T11:05:37.301Z,68.00
2018-12-11T11:08:07.362Z,67.80
2018-12-11T11:11:28.056Z,67.60
2018-12-11T11:13:57.712Z,67.60
2018-12-11T11:16:27.038Z,67.60
2018-12-11T11:18:56.447Z,67.50
2018-12-11T11:21:28.658Z,67.30
2018-12-11T11:26:47.819Z,67.50
2018-12-11T11:29:21.181Z,67.60
2018-12-11T11:31:51.460Z,67.50
2018-12-11T11:34:21.560Z,67.70
2018-12-11T11:36:50.872Z,67.70
2018-12-11T11:39:55.803Z,67.60
2018-12-11T11:42:25.722Z,67.30
2018-12-11T11:44:55.622Z,67.30
2018-12-11T11:47:25.004Z,67.20
2018-12-11T11:50:09.499Z,67.30
2018-12-11T11:55:51.001Z,67.20
2018-12-11T11:58:20.403Z,67.30
2018-12-11T12:00:51.199Z,67.10
2018-12-11T12:03:20.559Z,67.10
2018-12-11T12:05:59.322Z,67.00
2018-12-11T12:11:28.428Z,66.90
2018-12-11T12:14:05.936Z,66.90
2018-12-11T12:16:35.430Z,66.80
2018-12-11T12:19:08.816Z,66.60
2018-12-11T12:21:38.312Z,66.70
2018-12-11T12:24:07.870Z,66.70
2018-12-11T12:26:38.221Z,66.80
2018-12-11T12:29:27.334Z,66.80
2018-12-11T12:31:57.529Z,66.80
2018-12-11T12:34:26.899Z,66.70
2018-12-11T12:36:56.838Z,66.60
2018-12-11T12:39:29.349Z,66.70
2018-12-11T12:41:59.679Z,66.50
2018-12-11T12:44:29.030Z,66.50
2018-12-11T12:46:59.774Z,66.60
2018-12-11T12:49:32.272Z,66.60
2018-12-11T12:52:01.678Z,66.50
2018-12-11T12:54:31.133Z,66.60
2018-12-11T12:57:00.488Z,65.90
2018-12-11T13:02:36.855Z,62.00
2018-12-11T13:05:06.742Z,61.00
2018-12-11T13:07:36.648Z,60.40
2018-12-11T13:10:09.184Z,60.20
2018-12-11T13:12:44.915Z,60.00
2018-12-11T13:15:17.432Z,59.50
2018-12-11T13:17:46.869Z,59.10
2018-12-11T13:20:24.835Z,58.60
2018-12-11T13:22:58.484Z,58.30
2018-12-11T13:28:20.147Z,58.60
2018-12-11T13:30:51.696Z,59.00
2018-12-11T13:33:34.284Z,59.40
2018-12-11T13:36:32.219Z,59.80
2018-12-11T13:39:06.927Z,60.30
2018-12-11T13:41:42.117Z,60.70
2018-12-11T13:44:15.380Z,61.00
2018-12-11T13:49:59.140Z,61.50
2018-12-11T13:52:28.488Z,61.90
2018-12-11T13:54:58.167Z,62.10
2018-12-11T13:57:29.046Z,62.30
2018-12-11T14:02:57.843Z,62.50
2018-12-11T14:05:27.224Z,62.70
2018-12-11T14:08:02.787Z,62.80
2018-12-11T14:10:38.977Z,63.10
2018-12-11T14:16:08.736Z,63.20
2018-12-11T14:18:38.176Z,63.30
2018-12-11T14:21:08.494Z,63.40
2018-12-11T14:23:44.192Z,63.50
2018-12-11T14:26:14.621Z,63.50
2018-12-11T14:28:44.759Z,63.50
2018-12-11T14:31:14.103Z,63.70
2018-12-11T14:33:44.739Z,63.70
2018-12-11T14:36:14.120Z,63.80
2018-12-11T14:38:44.774Z,64.20
2018-12-11T14:41:14.810Z,64.40
2018-12-11T14:43:57.588Z,59.80
2018-12-11T14:46:38.896Z,61.50
2018-12-11T14:49:13.053Z,62.60
2018-12-11T14:51:43.477Z,63.40
2018-12-11T14:54:16.747Z,63.70
2018-12-11T14:56:56.009Z,64.20
2018-12-11T14:59:33.764Z,64.50
2018-12-11T15:02:09.597Z,64.80
2018-12-11T15:07:51.655Z,65.50
2018-12-11T15:10:29.431Z,65.90
2018-12-11T15:13:12.464Z,66.20
2018-12-11T15:15:41.943Z,66.70
2018-12-11T15:18:12.652Z,67.20
2018-12-11T15:23:50.021Z,68.30
2018-12-11T15:26:25.520Z,69.00
2018-12-11T15:28:59.302Z,69.50
2018-12-11T15:31:34.574Z,70.10
2018-12-11T15:34:04.192Z,70.70
2018-12-11T15:36:35.458Z,71.10
2018-12-11T15:39:07.579Z,71.50
2018-12-11T15:41:37.525Z,71.70
2018-12-11T15:44:29.248Z,72.20
2018-12-11T15:47:02.346Z,72.50
2018-12-11T15:49:41.312Z,72.80
2018-12-11T15:52:22.770Z,73.50
2018-12-11T15:55:02.170Z,76.00
2018-12-11T15:57:31.591Z,77.10
2018-12-11T16:00:09.762Z,77.50
2018-12-11T16:05:48.315Z,78.20
2018-12-11T16:08:27.509Z,79.70
2018-12-11T16:11:03.134Z,81.20
2018-12-11T16:13:36.572Z,82.40
2018-12-11T16:16:12.019Z,83.30
2018-12-11T16:18:41.958Z,83.90
2018-12-11T16:21:11.385Z,84.40
2018-12-11T16:23:47.381Z,85.10
2018-12-11T16:26:28.540Z,85.80
2018-12-11T16:29:17.171Z,86.60
2018-12-11T16:31:46.620Z,86.90
2018-12-11T16:34:22.739Z,86.40
2018-12-11T16:36:57.967Z,85.90
2018-12-11T16:39:30.362Z,85.20
2018-12-11T16:42:03.432Z,84.60
2018-12-11T16:47:39.020Z,83.80
2018-12-11T16:50:21.205Z,83.00
2018-12-11T16:52:50.613Z,82.80
2018-12-11T16:55:20.701Z,82.40
2018-12-11T17:00:50.309Z,82.10
2018-12-11T17:03:25.207Z,81.80
2018-12-11T17:05:56.378Z,81.90
2018-12-11T17:08:37.695Z,81.70
2018-12-11T17:11:10.976Z,81.40
2018-12-11T17:13:40.439Z,81.40
2018-12-11T17:16:10.575Z,81.90
2018-12-11T17:21:39.445Z,81.30
2018-12-11T17:24:10.053Z,81.00
2018-12-11T17:26:49.287Z,81.00
2018-12-11T17:29:24.441Z,80.90
2018-12-11T17:31:55.667Z,80.70
2018-12-11T17:34:56.901Z,81.00
2018-12-11T17:37:33.010Z,81.10
2018-12-11T17:40:15.435Z,81.40
2018-12-11T17:42:44.871Z,81.00
2018-12-11T17:45:19.958Z,81.00
2018-12-11T17:50:49.929Z,81.30
2018-12-11T17:53:26.963Z,81.50
2018-12-11T17:55:56.707Z,81.70
2018-12-11T17:58:29.485Z,82.10
2018-12-11T18:03:59.300Z,83.60
2018-12-11T18:06:28.901Z,83.40
2018-12-11T18:09:06.096Z,82.90
2018-12-11T18:11:41.768Z,83.00
2018-12-11T18:14:18.749Z,82.50
2018-12-11T18:20:05.595Z,81.80
2018-12-11T18:22:47.390Z,81.20
2018-12-11T18:25:27.071Z,80.70
2018-12-11T18:27:56.688Z,80.60
2018-12-11T18:30:29.211Z,79.80
2018-12-11T18:35:59.147Z,79.80
2018-12-11T18:38:34.193Z,79.40
2018-12-11T18:41:03.614Z,79.20
2018-12-11T18:43:39.042Z,79.00
2018-12-11T18:49:16.045Z,78.80
2018-12-11T18:51:50.973Z,78.50
2018-12-11T18:54:23.784Z,78.30
2018-12-11T18:57:03.183Z,78.20
2018-12-11T18:59:34.303Z,78.30
2018-12-11T19:02:37.512Z,78.30
2018-12-11T19:05:12.973Z,78.70
2018-12-11T19:07:45.991Z,79.00
2018-12-11T19:10:27.159Z,78.80
2018-12-11T19:13:02.937Z,79.10
2018-12-11T19:15:44.745Z,79.00
2018-12-11T19:18:20.253Z,79.60
2018-12-11T19:20:53.685Z,79.40
2018-12-11T19:23:41.314Z,79.20
2018-12-11T19:26:14.393Z,78.50
2018-12-11T19:28:50.799Z,78.10
2018-12-11T19:31:22.488Z,77.50
2018-12-11T19:34:04.040Z,77.10
2018-12-11T19:36:34.100Z,76.70
2018-12-11T19:39:08.966Z,76.40
2018-12-11T19:41:46.490Z,76.20
2018-12-11T19:44:21.923Z,76.10
2018-12-11T19:46:56.933Z,76.70
2018-12-11T19:49:30.088Z,77.50
2018-12-11T19:52:05.558Z,77.90
2018-12-11T19:54:38.847Z,78.40
2018-12-11T19:57:17.921Z,78.80
2018-12-11T19:59:49.572Z,78.90
2018-12-11T20:02:24.392Z,79.80
2018-12-11T20:05:00.455Z,79.20
2018-12-11T20:07:38.003Z,79.20
2018-12-11T20:10:15.790Z,79.10
2018-12-11T20:12:59.050Z,79.10
2018-12-11T20:15:36.181Z,79.00
2018-12-11T20:21:00.883Z,79.60
2018-12-11T20:23:35.041Z,80.00
2018-12-11T20:26:12.374Z,80.10
2018-12-11T20:28:48.006Z,80.40
2018-12-11T20:31:17.470Z,80.40
2018-12-11T20:33:46.918Z,80.30
2018-12-11T20:36:16.381Z,80.90
2018-12-11T20:38:46.052Z,81.80
2018-12-11T20:41:25.297Z,82.50
2018-12-11T20:43:54.755Z,83.10
2018-12-11T20:46:29.995Z,83.70
2018-12-11T20:49:05.529Z,84.00
2018-12-11T20:51:41.362Z,84.40
2018-12-11T20:54:14.439Z,84.50
2018-12-11T20:56:57.036Z,84.60
2018-12-11T20:59:43.010Z,84.80
2018-12-11T21:02:16.051Z,85.70
2018-12-11T21:04:51.471Z,85.60
2018-12-11T21:07:27.176Z,85.50
2018-12-11T21:10:00.771Z,85.10
2018-12-11T21:12:36.024Z,85.10
2018-12-11T21:15:07.084Z,84.60
2018-12-11T21:17:42.202Z,84.50
2018-12-11T21:20:15.133Z,84.50
2018-12-11T21:22:50.025Z,84.20
2018-12-11T21:25:21.911Z,84.50
2018-12-11T21:27:56.788Z,85.10
2018-12-11T21:30:32.778Z,84.50
2018-12-11T21:33:08.063Z,84.30
2018-12-11T21:35:51.273Z,84.60
2018-12-11T21:38:27.581Z,84.70
2018-12-11T21:41:07.173Z,84.40
2018-12-11T21:43:53.001Z,84.60
2018-12-11T21:46:22.784Z,85.20
2018-12-11T21:48:58.010Z,85.20
2018-12-11T21:51:31.272Z,85.00
2018-12-11T21:54:09.312Z,85.10
2018-12-11T21:56:44.403Z,85.30
2018-12-11T21:59:24.021Z,85.60
2018-12-11T22:01:54.207Z,86.20
2018-12-11T22:04:34.517Z,85.90
2018-12-11T22:07:04.427Z,85.70
2018-12-11T22:09:40.496Z,84.90
2018-12-11T22:12:14.189Z,85.00
2018-12-11T22:14:59.582Z,84.80
2018-12-11T22:17:32.804Z,84.60
2018-12-11T22:20:10.853Z,85.00
2018-12-11T22:22:50.264Z,85.30
2018-12-11T22:25:21.340Z,85.10
2018-12-11T22:27:56.450Z,85.20
2018-12-11T22:30:32.331Z,84.60
2018-12-11T22:33:08.789Z,84.50
2018-12-11T22:35:48.066Z,85.10
2018-12-11T22:38:23.029Z,85.30
2018-12-11T22:41:04.719Z,85.40
2018-12-11T22:43:46.253Z,85.30
2018-12-11T22:46:16.238Z,86.40
2018-12-11T22:48:46.137Z,86.10
2018-12-11T22:51:20.228Z,85.90
2018-12-11T22:54:03.046Z,86.00
2018-12-11T22:56:38.635Z,85.70
2018-12-11T22:59:08.060Z,85.70
2018-12-11T23:01:45.490Z,86.60
2018-12-11T23:04:20.539Z,86.40
2018-12-11T23:06:57.155Z,86.50
2018-12-11T23:09:30.601Z,86.40
2018-12-11T23:12:06.158Z,86.30
2018-12-11T23:14:46.236Z,87.70
2018-12-11T23:17:23.303Z,87.20
2018-12-11T23:19:55.048Z,87.60
2018-12-11T23:22:30.352Z,87.30
2018-12-11T23:25:00.815Z,87.10
2018-12-11T23:27:43.211Z,87.80
2018-12-11T23:30:16.097Z,87.30
2018-12-11T23:32:57.420Z,87.20
2018-12-11T23:35:32.947Z,87.10
2018-12-11T23:38:11.885Z,87.30
2018-12-11T23:40:53.099Z,87.50
2018-12-11T23:43:30.238Z,87.60
2018-12-11T23:46:08.207Z,87.80
2018-12-11T23:48:47.199Z,87.70
2018-12-11T23:51:19.729Z,88.30
2018-12-11T23:53:50.223Z,87.80
2018-12-11T23:56:25.102Z,88.90
2018-12-11T23:59:03.112Z,90.30
